<?xml version="1.0" encoding="UTF-8" standalone="no" ?>
<gpx xmlns="http://www.topografix.com/GPX/1/1" xmlns:xsi="http://www.w3.org/2001/XMLSchema-instance" xsi:schemaLocation="http://www.topografix.com/GPX/1/1 http://www.topografix.com/GPX/1/1/gpx.xsd" version="1.1" creator="VisuGPX - https://www.visugpx.com">
  <metadata>
    <name>Marche populaire - Hirsingue (27/02/2016)</name>
    <desc><![CDATA[Marche populaire de Hirsingue (27/02/2016)
 >>> parcours de 10 km]]></desc>
  </metadata>
  <trk>
    <name><![CDATA[2016-02-27 11:35]]></name>
    <desc><![CDATA[<h1>OruxMaps</h1><br /><hr align="center" width="480" style="height: 2px; width: 517px"/><h2>Nom: 2016-02-27 11:35</h2><br /><p>Temps de départ: 02/27/2016 11:35</p><p>Temps d'arrivée: 02/27/2016 13:05</p><p>Distance: 9,5km (01:30)</p><p>Temps déplacement: 01:19</p><p>Vitesse moyenne: 6,3km/h</p><p>Vitesse moyenne: 7,2km/h</p><p>Vitess Max.: 11,5km/h</p><p>Altitude minimale: 293m</p><p>Altitude maximale: 399m</p><p>Vitesse d'élévation: 397,8m/h</p><p>Vitesse de descente: -406m/h</p><p>Gain Altitude: 255m</p><p>Perte Altitude: -240m</p><p>Temps d'élévation: 00:38</p><p>Temps de descente: 00:35</p><hr align="center" width="480" style="height: 2px; width: 517px"/>]]></desc>
    <trkseg>
      <trkpt lat="47.59142" lon="7.24897">
        <ele>299.35</ele>
        <time>2016-02-27T10:35:49Z</time>
      </trkpt>
      <trkpt lat="47.59124" lon="7.24908">
        <ele>324.81</ele>
        <time>2016-02-27T10:36:11Z</time>
      </trkpt>
      <trkpt lat="47.59103" lon="7.24911">
        <ele>294.96</ele>
        <time>2016-02-27T10:36:26Z</time>
      </trkpt>
      <trkpt lat="47.59075" lon="7.24901">
        <ele>297.56</ele>
        <time>2016-02-27T10:36:40Z</time>
      </trkpt>
      <trkpt lat="47.59063" lon="7.2488">
        <ele>301.5</ele>
        <time>2016-02-27T10:36:49Z</time>
      </trkpt>
      <trkpt lat="47.59066" lon="7.24852">
        <ele>303.12</ele>
        <time>2016-02-27T10:37:03Z</time>
      </trkpt>
      <trkpt lat="47.59069" lon="7.24825">
        <ele>305.68</ele>
        <time>2016-02-27T10:37:16Z</time>
      </trkpt>
      <trkpt lat="47.59073" lon="7.24798">
        <ele>308.38</ele>
        <time>2016-02-27T10:37:27Z</time>
      </trkpt>
      <trkpt lat="47.59074" lon="7.24771">
        <ele>311.85</ele>
        <time>2016-02-27T10:37:40Z</time>
      </trkpt>
      <trkpt lat="47.59073" lon="7.24742">
        <ele>316.05</ele>
        <time>2016-02-27T10:37:54Z</time>
      </trkpt>
      <trkpt lat="47.59071" lon="7.24714">
        <ele>320.17</ele>
        <time>2016-02-27T10:38:04Z</time>
      </trkpt>
      <trkpt lat="47.59071" lon="7.24685">
        <ele>328.57</ele>
        <time>2016-02-27T10:38:15Z</time>
      </trkpt>
      <trkpt lat="47.5908" lon="7.24632">
        <ele>316.56</ele>
        <time>2016-02-27T10:38:20Z</time>
      </trkpt>
      <trkpt lat="47.59078" lon="7.24602">
        <ele>298.28</ele>
        <time>2016-02-27T10:38:36Z</time>
      </trkpt>
      <trkpt lat="47.59082" lon="7.24576">
        <ele>294.63</ele>
        <time>2016-02-27T10:38:48Z</time>
      </trkpt>
      <trkpt lat="47.59087" lon="7.24549">
        <ele>293.65</ele>
        <time>2016-02-27T10:39:03Z</time>
      </trkpt>
      <trkpt lat="47.59092" lon="7.24522">
        <ele>294.02</ele>
        <time>2016-02-27T10:39:15Z</time>
      </trkpt>
      <trkpt lat="47.591" lon="7.24498">
        <ele>294.28</ele>
        <time>2016-02-27T10:39:26Z</time>
      </trkpt>
      <trkpt lat="47.59109" lon="7.24475">
        <ele>294.34</ele>
        <time>2016-02-27T10:39:34Z</time>
      </trkpt>
      <trkpt lat="47.59118" lon="7.24452">
        <ele>295.59</ele>
        <time>2016-02-27T10:39:44Z</time>
      </trkpt>
      <trkpt lat="47.59126" lon="7.24428">
        <ele>297.95</ele>
        <time>2016-02-27T10:39:55Z</time>
      </trkpt>
      <trkpt lat="47.59135" lon="7.24403">
        <ele>300.89</ele>
        <time>2016-02-27T10:40:07Z</time>
      </trkpt>
      <trkpt lat="47.59144" lon="7.2438">
        <ele>303.79</ele>
        <time>2016-02-27T10:40:18Z</time>
      </trkpt>
      <trkpt lat="47.59157" lon="7.24357">
        <ele>305.46</ele>
        <time>2016-02-27T10:40:30Z</time>
      </trkpt>
      <trkpt lat="47.59166" lon="7.24332">
        <ele>302.69</ele>
        <time>2016-02-27T10:40:39Z</time>
      </trkpt>
      <trkpt lat="47.59172" lon="7.24304">
        <ele>300.37</ele>
        <time>2016-02-27T10:40:50Z</time>
      </trkpt>
      <trkpt lat="47.5918" lon="7.2428">
        <ele>299.75</ele>
        <time>2016-02-27T10:41:03Z</time>
      </trkpt>
      <trkpt lat="47.59189" lon="7.24256">
        <ele>298.99</ele>
        <time>2016-02-27T10:41:13Z</time>
      </trkpt>
      <trkpt lat="47.59201" lon="7.24235">
        <ele>298.57</ele>
        <time>2016-02-27T10:41:24Z</time>
      </trkpt>
      <trkpt lat="47.5921" lon="7.24209">
        <ele>297.06</ele>
        <time>2016-02-27T10:41:37Z</time>
      </trkpt>
      <trkpt lat="47.59221" lon="7.24184">
        <ele>296.08</ele>
        <time>2016-02-27T10:41:47Z</time>
      </trkpt>
      <trkpt lat="47.59227" lon="7.24158">
        <ele>295.92</ele>
        <time>2016-02-27T10:41:59Z</time>
      </trkpt>
      <trkpt lat="47.59234" lon="7.2413">
        <ele>295.39</ele>
        <time>2016-02-27T10:42:11Z</time>
      </trkpt>
      <trkpt lat="47.59245" lon="7.24107">
        <ele>295.12</ele>
        <time>2016-02-27T10:42:22Z</time>
      </trkpt>
      <trkpt lat="47.59254" lon="7.24081">
        <ele>295.29</ele>
        <time>2016-02-27T10:42:32Z</time>
      </trkpt>
      <trkpt lat="47.59262" lon="7.24057">
        <ele>297.12</ele>
        <time>2016-02-27T10:42:43Z</time>
      </trkpt>
      <trkpt lat="47.59269" lon="7.24031">
        <ele>299.07</ele>
        <time>2016-02-27T10:42:55Z</time>
      </trkpt>
      <trkpt lat="47.5926" lon="7.24005">
        <ele>299.98</ele>
        <time>2016-02-27T10:43:08Z</time>
      </trkpt>
      <trkpt lat="47.59244" lon="7.2399">
        <ele>300.55</ele>
        <time>2016-02-27T10:43:20Z</time>
      </trkpt>
      <trkpt lat="47.59225" lon="7.23991">
        <ele>301.62</ele>
        <time>2016-02-27T10:43:32Z</time>
      </trkpt>
      <trkpt lat="47.59211" lon="7.24009">
        <ele>302.99</ele>
        <time>2016-02-27T10:43:46Z</time>
      </trkpt>
      <trkpt lat="47.59195" lon="7.23997">
        <ele>303.91</ele>
        <time>2016-02-27T10:43:57Z</time>
      </trkpt>
      <trkpt lat="47.59177" lon="7.23986">
        <ele>304.93</ele>
        <time>2016-02-27T10:44:08Z</time>
      </trkpt>
      <trkpt lat="47.59159" lon="7.23977">
        <ele>305.96</ele>
        <time>2016-02-27T10:44:20Z</time>
      </trkpt>
      <trkpt lat="47.5914" lon="7.23969">
        <ele>307.26</ele>
        <time>2016-02-27T10:44:31Z</time>
      </trkpt>
      <trkpt lat="47.59121" lon="7.2396">
        <ele>307.94</ele>
        <time>2016-02-27T10:44:43Z</time>
      </trkpt>
      <trkpt lat="47.59104" lon="7.23949">
        <ele>308.35</ele>
        <time>2016-02-27T10:44:54Z</time>
      </trkpt>
      <trkpt lat="47.59087" lon="7.23936">
        <ele>308.47</ele>
        <time>2016-02-27T10:45:05Z</time>
      </trkpt>
      <trkpt lat="47.5907" lon="7.23923">
        <ele>308.42</ele>
        <time>2016-02-27T10:45:16Z</time>
      </trkpt>
      <trkpt lat="47.59053" lon="7.23911">
        <ele>308.84</ele>
        <time>2016-02-27T10:45:28Z</time>
      </trkpt>
      <trkpt lat="47.5905" lon="7.23885">
        <ele>310.48</ele>
        <time>2016-02-27T10:45:41Z</time>
      </trkpt>
      <trkpt lat="47.59057" lon="7.2386">
        <ele>312.2</ele>
        <time>2016-02-27T10:45:51Z</time>
      </trkpt>
      <trkpt lat="47.59065" lon="7.23835">
        <ele>313.67</ele>
        <time>2016-02-27T10:46:01Z</time>
      </trkpt>
      <trkpt lat="47.59074" lon="7.23812">
        <ele>315.15</ele>
        <time>2016-02-27T10:46:11Z</time>
      </trkpt>
      <trkpt lat="47.59086" lon="7.2379">
        <ele>316.43</ele>
        <time>2016-02-27T10:46:22Z</time>
      </trkpt>
      <trkpt lat="47.59094" lon="7.23766">
        <ele>317.75</ele>
        <time>2016-02-27T10:46:32Z</time>
      </trkpt>
      <trkpt lat="47.59102" lon="7.23739">
        <ele>319.64</ele>
        <time>2016-02-27T10:46:43Z</time>
      </trkpt>
      <trkpt lat="47.59098" lon="7.23712">
        <ele>321.21</ele>
        <time>2016-02-27T10:46:58Z</time>
      </trkpt>
      <trkpt lat="47.59082" lon="7.23699">
        <ele>322.33</ele>
        <time>2016-02-27T10:47:09Z</time>
      </trkpt>
      <trkpt lat="47.59065" lon="7.23687">
        <ele>323.5</ele>
        <time>2016-02-27T10:47:22Z</time>
      </trkpt>
      <trkpt lat="47.59047" lon="7.23677">
        <ele>324.49</ele>
        <time>2016-02-27T10:47:35Z</time>
      </trkpt>
      <trkpt lat="47.5903" lon="7.23663">
        <ele>325.31</ele>
        <time>2016-02-27T10:47:48Z</time>
      </trkpt>
      <trkpt lat="47.59014" lon="7.2365">
        <ele>326.4</ele>
        <time>2016-02-27T10:48:00Z</time>
      </trkpt>
      <trkpt lat="47.58997" lon="7.23639">
        <ele>328.26</ele>
        <time>2016-02-27T10:48:13Z</time>
      </trkpt>
      <trkpt lat="47.5898" lon="7.23627">
        <ele>330.23</ele>
        <time>2016-02-27T10:48:25Z</time>
      </trkpt>
      <trkpt lat="47.58964" lon="7.23611">
        <ele>331.59</ele>
        <time>2016-02-27T10:48:37Z</time>
      </trkpt>
      <trkpt lat="47.58948" lon="7.23597">
        <ele>333.25</ele>
        <time>2016-02-27T10:48:49Z</time>
      </trkpt>
      <trkpt lat="47.58931" lon="7.23584">
        <ele>334.5</ele>
        <time>2016-02-27T10:49:00Z</time>
      </trkpt>
      <trkpt lat="47.58914" lon="7.23572">
        <ele>336.98</ele>
        <time>2016-02-27T10:49:12Z</time>
      </trkpt>
      <trkpt lat="47.58897" lon="7.23561">
        <ele>339.95</ele>
        <time>2016-02-27T10:49:25Z</time>
      </trkpt>
      <trkpt lat="47.5888" lon="7.23545">
        <ele>342.51</ele>
        <time>2016-02-27T10:49:37Z</time>
      </trkpt>
      <trkpt lat="47.58863" lon="7.2353">
        <ele>345.76</ele>
        <time>2016-02-27T10:49:50Z</time>
      </trkpt>
      <trkpt lat="47.58846" lon="7.23517">
        <ele>349.21</ele>
        <time>2016-02-27T10:50:05Z</time>
      </trkpt>
      <trkpt lat="47.5883" lon="7.23505">
        <ele>352.04</ele>
        <time>2016-02-27T10:50:19Z</time>
      </trkpt>
      <trkpt lat="47.58816" lon="7.23486">
        <ele>354.02</ele>
        <time>2016-02-27T10:50:29Z</time>
      </trkpt>
      <trkpt lat="47.58802" lon="7.23468">
        <ele>356.94</ele>
        <time>2016-02-27T10:50:40Z</time>
      </trkpt>
      <trkpt lat="47.58788" lon="7.23449">
        <ele>361.24</ele>
        <time>2016-02-27T10:50:53Z</time>
      </trkpt>
      <trkpt lat="47.58775" lon="7.2343">
        <ele>364.95</ele>
        <time>2016-02-27T10:51:05Z</time>
      </trkpt>
      <trkpt lat="47.58764" lon="7.23406">
        <ele>369.44</ele>
        <time>2016-02-27T10:51:17Z</time>
      </trkpt>
      <trkpt lat="47.58749" lon="7.23391">
        <ele>373.48</ele>
        <time>2016-02-27T10:51:29Z</time>
      </trkpt>
      <trkpt lat="47.58732" lon="7.23378">
        <ele>375.48</ele>
        <time>2016-02-27T10:51:41Z</time>
      </trkpt>
      <trkpt lat="47.58715" lon="7.23365">
        <ele>374.98</ele>
        <time>2016-02-27T10:51:55Z</time>
      </trkpt>
      <trkpt lat="47.587" lon="7.23351">
        <ele>373.96</ele>
        <time>2016-02-27T10:52:08Z</time>
      </trkpt>
      <trkpt lat="47.58686" lon="7.23331">
        <ele>373.35</ele>
        <time>2016-02-27T10:52:20Z</time>
      </trkpt>
      <trkpt lat="47.58672" lon="7.23313">
        <ele>372.9</ele>
        <time>2016-02-27T10:52:31Z</time>
      </trkpt>
      <trkpt lat="47.58655" lon="7.233">
        <ele>372.38</ele>
        <time>2016-02-27T10:52:43Z</time>
      </trkpt>
      <trkpt lat="47.58637" lon="7.23307">
        <ele>372.26</ele>
        <time>2016-02-27T10:52:55Z</time>
      </trkpt>
      <trkpt lat="47.58623" lon="7.23328">
        <ele>373.16</ele>
        <time>2016-02-27T10:53:06Z</time>
      </trkpt>
      <trkpt lat="47.58608" lon="7.23343">
        <ele>374.46</ele>
        <time>2016-02-27T10:53:18Z</time>
      </trkpt>
      <trkpt lat="47.58594" lon="7.23363">
        <ele>375.15</ele>
        <time>2016-02-27T10:53:29Z</time>
      </trkpt>
      <trkpt lat="47.5858" lon="7.23383">
        <ele>376.96</ele>
        <time>2016-02-27T10:53:41Z</time>
      </trkpt>
      <trkpt lat="47.58567" lon="7.23403">
        <ele>378</ele>
        <time>2016-02-27T10:53:52Z</time>
      </trkpt>
      <trkpt lat="47.58554" lon="7.23421">
        <ele>378.55</ele>
        <time>2016-02-27T10:54:03Z</time>
      </trkpt>
      <trkpt lat="47.5854" lon="7.23441">
        <ele>378.88</ele>
        <time>2016-02-27T10:54:16Z</time>
      </trkpt>
      <trkpt lat="47.58525" lon="7.2346">
        <ele>379.38</ele>
        <time>2016-02-27T10:54:27Z</time>
      </trkpt>
      <trkpt lat="47.58512" lon="7.23481">
        <ele>379.87</ele>
        <time>2016-02-27T10:54:38Z</time>
      </trkpt>
      <trkpt lat="47.58497" lon="7.23499">
        <ele>379.82</ele>
        <time>2016-02-27T10:54:49Z</time>
      </trkpt>
      <trkpt lat="47.58484" lon="7.23519">
        <ele>379.89</ele>
        <time>2016-02-27T10:55:00Z</time>
      </trkpt>
      <trkpt lat="47.5847" lon="7.23538">
        <ele>379.99</ele>
        <time>2016-02-27T10:55:11Z</time>
      </trkpt>
      <trkpt lat="47.58456" lon="7.23556">
        <ele>380.19</ele>
        <time>2016-02-27T10:55:22Z</time>
      </trkpt>
      <trkpt lat="47.58442" lon="7.23574">
        <ele>381.45</ele>
        <time>2016-02-27T10:55:33Z</time>
      </trkpt>
      <trkpt lat="47.58427" lon="7.23592">
        <ele>382.48</ele>
        <time>2016-02-27T10:55:44Z</time>
      </trkpt>
      <trkpt lat="47.58414" lon="7.23612">
        <ele>382.52</ele>
        <time>2016-02-27T10:55:54Z</time>
      </trkpt>
      <trkpt lat="47.58399" lon="7.23631">
        <ele>382.81</ele>
        <time>2016-02-27T10:56:05Z</time>
      </trkpt>
      <trkpt lat="47.58384" lon="7.23649">
        <ele>383.15</ele>
        <time>2016-02-27T10:56:16Z</time>
      </trkpt>
      <trkpt lat="47.58369" lon="7.23667">
        <ele>383.33</ele>
        <time>2016-02-27T10:56:28Z</time>
      </trkpt>
      <trkpt lat="47.58355" lon="7.23685">
        <ele>383.72</ele>
        <time>2016-02-27T10:56:38Z</time>
      </trkpt>
      <trkpt lat="47.58338" lon="7.23699">
        <ele>383.84</ele>
        <time>2016-02-27T10:56:49Z</time>
      </trkpt>
      <trkpt lat="47.58321" lon="7.23705">
        <ele>383.91</ele>
        <time>2016-02-27T10:57:01Z</time>
      </trkpt>
      <trkpt lat="47.58302" lon="7.23715">
        <ele>383.86</ele>
        <time>2016-02-27T10:57:13Z</time>
      </trkpt>
      <trkpt lat="47.58284" lon="7.23723">
        <ele>383.44</ele>
        <time>2016-02-27T10:57:23Z</time>
      </trkpt>
      <trkpt lat="47.58267" lon="7.23737">
        <ele>383.33</ele>
        <time>2016-02-27T10:57:34Z</time>
      </trkpt>
      <trkpt lat="47.58251" lon="7.23748">
        <ele>382.96</ele>
        <time>2016-02-27T10:57:44Z</time>
      </trkpt>
      <trkpt lat="47.58233" lon="7.2376">
        <ele>382.36</ele>
        <time>2016-02-27T10:57:55Z</time>
      </trkpt>
      <trkpt lat="47.58216" lon="7.23772">
        <ele>382.19</ele>
        <time>2016-02-27T10:58:06Z</time>
      </trkpt>
      <trkpt lat="47.58199" lon="7.23786">
        <ele>382.29</ele>
        <time>2016-02-27T10:58:18Z</time>
      </trkpt>
      <trkpt lat="47.58182" lon="7.23799">
        <ele>382.79</ele>
        <time>2016-02-27T10:58:29Z</time>
      </trkpt>
      <trkpt lat="47.58165" lon="7.2381">
        <ele>382.99</ele>
        <time>2016-02-27T10:58:39Z</time>
      </trkpt>
      <trkpt lat="47.58148" lon="7.23821">
        <ele>382.75</ele>
        <time>2016-02-27T10:58:50Z</time>
      </trkpt>
      <trkpt lat="47.58131" lon="7.23833">
        <ele>382.49</ele>
        <time>2016-02-27T10:59:00Z</time>
      </trkpt>
      <trkpt lat="47.58113" lon="7.23843">
        <ele>384.06</ele>
        <time>2016-02-27T10:59:12Z</time>
      </trkpt>
      <trkpt lat="47.58096" lon="7.23856">
        <ele>384.73</ele>
        <time>2016-02-27T10:59:23Z</time>
      </trkpt>
      <trkpt lat="47.58079" lon="7.23868">
        <ele>385.39</ele>
        <time>2016-02-27T10:59:35Z</time>
      </trkpt>
      <trkpt lat="47.58062" lon="7.23881">
        <ele>384.96</ele>
        <time>2016-02-27T10:59:45Z</time>
      </trkpt>
      <trkpt lat="47.58046" lon="7.23894">
        <ele>384.44</ele>
        <time>2016-02-27T10:59:58Z</time>
      </trkpt>
      <trkpt lat="47.58029" lon="7.23906">
        <ele>384.09</ele>
        <time>2016-02-27T11:00:09Z</time>
      </trkpt>
      <trkpt lat="47.58013" lon="7.23919">
        <ele>383.89</ele>
        <time>2016-02-27T11:00:19Z</time>
      </trkpt>
      <trkpt lat="47.57996" lon="7.23931">
        <ele>383.38</ele>
        <time>2016-02-27T11:00:30Z</time>
      </trkpt>
      <trkpt lat="47.57979" lon="7.2392">
        <ele>382.81</ele>
        <time>2016-02-27T11:00:40Z</time>
      </trkpt>
      <trkpt lat="47.57967" lon="7.239">
        <ele>381.59</ele>
        <time>2016-02-27T11:00:53Z</time>
      </trkpt>
      <trkpt lat="47.57956" lon="7.23876">
        <ele>380.14</ele>
        <time>2016-02-27T11:01:05Z</time>
      </trkpt>
      <trkpt lat="47.57947" lon="7.2385">
        <ele>379.39</ele>
        <time>2016-02-27T11:01:16Z</time>
      </trkpt>
      <trkpt lat="47.57939" lon="7.23824">
        <ele>378.88</ele>
        <time>2016-02-27T11:01:27Z</time>
      </trkpt>
      <trkpt lat="47.57931" lon="7.23799">
        <ele>378.56</ele>
        <time>2016-02-27T11:01:38Z</time>
      </trkpt>
      <trkpt lat="47.57925" lon="7.23773">
        <ele>378.61</ele>
        <time>2016-02-27T11:01:50Z</time>
      </trkpt>
      <trkpt lat="47.57916" lon="7.23749">
        <ele>377.82</ele>
        <time>2016-02-27T11:02:01Z</time>
      </trkpt>
      <trkpt lat="47.57909" lon="7.23724">
        <ele>376.96</ele>
        <time>2016-02-27T11:02:12Z</time>
      </trkpt>
      <trkpt lat="47.57901" lon="7.23699">
        <ele>376.88</ele>
        <time>2016-02-27T11:02:22Z</time>
      </trkpt>
      <trkpt lat="47.57893" lon="7.23675">
        <ele>376.58</ele>
        <time>2016-02-27T11:02:34Z</time>
      </trkpt>
      <trkpt lat="47.57886" lon="7.2365">
        <ele>376.19</ele>
        <time>2016-02-27T11:02:48Z</time>
      </trkpt>
      <trkpt lat="47.57872" lon="7.23633">
        <ele>386.52</ele>
        <time>2016-02-27T11:06:58Z</time>
      </trkpt>
      <trkpt lat="47.57867" lon="7.23607">
        <ele>385.51</ele>
        <time>2016-02-27T11:07:14Z</time>
      </trkpt>
      <trkpt lat="47.57859" lon="7.23583">
        <ele>384.49</ele>
        <time>2016-02-27T11:07:26Z</time>
      </trkpt>
      <trkpt lat="47.57849" lon="7.23559">
        <ele>382.94</ele>
        <time>2016-02-27T11:07:37Z</time>
      </trkpt>
      <trkpt lat="47.57838" lon="7.23537">
        <ele>382.51</ele>
        <time>2016-02-27T11:07:47Z</time>
      </trkpt>
      <trkpt lat="47.57827" lon="7.23514">
        <ele>381.75</ele>
        <time>2016-02-27T11:07:58Z</time>
      </trkpt>
      <trkpt lat="47.57819" lon="7.2349">
        <ele>381.19</ele>
        <time>2016-02-27T11:08:10Z</time>
      </trkpt>
      <trkpt lat="47.57809" lon="7.23466">
        <ele>380.1</ele>
        <time>2016-02-27T11:08:21Z</time>
      </trkpt>
      <trkpt lat="47.57798" lon="7.23444">
        <ele>379.32</ele>
        <time>2016-02-27T11:08:30Z</time>
      </trkpt>
      <trkpt lat="47.57789" lon="7.23419">
        <ele>379.62</ele>
        <time>2016-02-27T11:08:40Z</time>
      </trkpt>
      <trkpt lat="47.57781" lon="7.23394">
        <ele>380.65</ele>
        <time>2016-02-27T11:08:50Z</time>
      </trkpt>
      <trkpt lat="47.5777" lon="7.23371">
        <ele>382.42</ele>
        <time>2016-02-27T11:09:03Z</time>
      </trkpt>
      <trkpt lat="47.57758" lon="7.23348">
        <ele>383.49</ele>
        <time>2016-02-27T11:09:13Z</time>
      </trkpt>
      <trkpt lat="47.57747" lon="7.23325">
        <ele>384.26</ele>
        <time>2016-02-27T11:09:25Z</time>
      </trkpt>
      <trkpt lat="47.57736" lon="7.233">
        <ele>385.21</ele>
        <time>2016-02-27T11:09:37Z</time>
      </trkpt>
      <trkpt lat="47.57727" lon="7.23277">
        <ele>385.65</ele>
        <time>2016-02-27T11:09:47Z</time>
      </trkpt>
      <trkpt lat="47.57717" lon="7.23253">
        <ele>386.77</ele>
        <time>2016-02-27T11:09:58Z</time>
      </trkpt>
      <trkpt lat="47.57707" lon="7.23232">
        <ele>386.88</ele>
        <time>2016-02-27T11:10:08Z</time>
      </trkpt>
      <trkpt lat="47.57688" lon="7.23236">
        <ele>388.46</ele>
        <time>2016-02-27T11:10:21Z</time>
      </trkpt>
      <trkpt lat="47.57671" lon="7.2325">
        <ele>389.64</ele>
        <time>2016-02-27T11:10:33Z</time>
      </trkpt>
      <trkpt lat="47.57656" lon="7.23266">
        <ele>390.12</ele>
        <time>2016-02-27T11:10:44Z</time>
      </trkpt>
      <trkpt lat="47.57639" lon="7.23281">
        <ele>390.85</ele>
        <time>2016-02-27T11:10:55Z</time>
      </trkpt>
      <trkpt lat="47.57622" lon="7.23295">
        <ele>391.44</ele>
        <time>2016-02-27T11:11:06Z</time>
      </trkpt>
      <trkpt lat="47.57607" lon="7.23309">
        <ele>391.86</ele>
        <time>2016-02-27T11:11:17Z</time>
      </trkpt>
      <trkpt lat="47.57591" lon="7.23324">
        <ele>392.24</ele>
        <time>2016-02-27T11:11:30Z</time>
      </trkpt>
      <trkpt lat="47.57576" lon="7.23339">
        <ele>392.37</ele>
        <time>2016-02-27T11:11:41Z</time>
      </trkpt>
      <trkpt lat="47.57558" lon="7.23355">
        <ele>392.66</ele>
        <time>2016-02-27T11:11:53Z</time>
      </trkpt>
      <trkpt lat="47.57542" lon="7.23369">
        <ele>392.64</ele>
        <time>2016-02-27T11:12:05Z</time>
      </trkpt>
      <trkpt lat="47.57527" lon="7.23384">
        <ele>393</ele>
        <time>2016-02-27T11:12:16Z</time>
      </trkpt>
      <trkpt lat="47.5751" lon="7.234">
        <ele>393.82</ele>
        <time>2016-02-27T11:12:28Z</time>
      </trkpt>
      <trkpt lat="47.57491" lon="7.23404">
        <ele>395.76</ele>
        <time>2016-02-27T11:12:41Z</time>
      </trkpt>
      <trkpt lat="47.5748" lon="7.23382">
        <ele>396.23</ele>
        <time>2016-02-27T11:12:52Z</time>
      </trkpt>
      <trkpt lat="47.57469" lon="7.23361">
        <ele>396.52</ele>
        <time>2016-02-27T11:13:03Z</time>
      </trkpt>
      <trkpt lat="47.57458" lon="7.23338">
        <ele>397.15</ele>
        <time>2016-02-27T11:13:14Z</time>
      </trkpt>
      <trkpt lat="47.57447" lon="7.23315">
        <ele>397.15</ele>
        <time>2016-02-27T11:13:25Z</time>
      </trkpt>
      <trkpt lat="47.57436" lon="7.23293">
        <ele>396.71</ele>
        <time>2016-02-27T11:13:36Z</time>
      </trkpt>
      <trkpt lat="47.57426" lon="7.23268">
        <ele>395.6</ele>
        <time>2016-02-27T11:13:47Z</time>
      </trkpt>
      <trkpt lat="47.57416" lon="7.23244">
        <ele>394.24</ele>
        <time>2016-02-27T11:13:58Z</time>
      </trkpt>
      <trkpt lat="47.57407" lon="7.2322">
        <ele>393.62</ele>
        <time>2016-02-27T11:14:09Z</time>
      </trkpt>
      <trkpt lat="47.57397" lon="7.23195">
        <ele>393.59</ele>
        <time>2016-02-27T11:14:21Z</time>
      </trkpt>
      <trkpt lat="47.57387" lon="7.2317">
        <ele>392.57</ele>
        <time>2016-02-27T11:14:32Z</time>
      </trkpt>
      <trkpt lat="47.57377" lon="7.23147">
        <ele>391.32</ele>
        <time>2016-02-27T11:14:41Z</time>
      </trkpt>
      <trkpt lat="47.57367" lon="7.23123">
        <ele>390.84</ele>
        <time>2016-02-27T11:14:51Z</time>
      </trkpt>
      <trkpt lat="47.57357" lon="7.23098">
        <ele>390.82</ele>
        <time>2016-02-27T11:15:02Z</time>
      </trkpt>
      <trkpt lat="47.57347" lon="7.23073">
        <ele>391.16</ele>
        <time>2016-02-27T11:15:12Z</time>
      </trkpt>
      <trkpt lat="47.57337" lon="7.23049">
        <ele>391.06</ele>
        <time>2016-02-27T11:15:23Z</time>
      </trkpt>
      <trkpt lat="47.57324" lon="7.23028">
        <ele>391.14</ele>
        <time>2016-02-27T11:15:34Z</time>
      </trkpt>
      <trkpt lat="47.57309" lon="7.23012">
        <ele>390.72</ele>
        <time>2016-02-27T11:15:46Z</time>
      </trkpt>
      <trkpt lat="47.57294" lon="7.22996">
        <ele>390.36</ele>
        <time>2016-02-27T11:15:56Z</time>
      </trkpt>
      <trkpt lat="47.57278" lon="7.2298">
        <ele>390.33</ele>
        <time>2016-02-27T11:16:08Z</time>
      </trkpt>
      <trkpt lat="47.57263" lon="7.22967">
        <ele>389.86</ele>
        <time>2016-02-27T11:16:18Z</time>
      </trkpt>
      <trkpt lat="47.57248" lon="7.2295">
        <ele>389.65</ele>
        <time>2016-02-27T11:16:27Z</time>
      </trkpt>
      <trkpt lat="47.57232" lon="7.22933">
        <ele>389.56</ele>
        <time>2016-02-27T11:16:37Z</time>
      </trkpt>
      <trkpt lat="47.57218" lon="7.22914">
        <ele>388.07</ele>
        <time>2016-02-27T11:16:51Z</time>
      </trkpt>
      <trkpt lat="47.57209" lon="7.22891">
        <ele>386.51</ele>
        <time>2016-02-27T11:17:02Z</time>
      </trkpt>
      <trkpt lat="47.57201" lon="7.22867">
        <ele>385.02</ele>
        <time>2016-02-27T11:17:12Z</time>
      </trkpt>
      <trkpt lat="47.57192" lon="7.22842">
        <ele>385.37</ele>
        <time>2016-02-27T11:17:21Z</time>
      </trkpt>
      <trkpt lat="47.57183" lon="7.22816">
        <ele>386.05</ele>
        <time>2016-02-27T11:17:30Z</time>
      </trkpt>
      <trkpt lat="47.57174" lon="7.22792">
        <ele>386.87</ele>
        <time>2016-02-27T11:17:41Z</time>
      </trkpt>
      <trkpt lat="47.57165" lon="7.22769">
        <ele>387.21</ele>
        <time>2016-02-27T11:17:51Z</time>
      </trkpt>
      <trkpt lat="47.57156" lon="7.22745">
        <ele>387.53</ele>
        <time>2016-02-27T11:18:02Z</time>
      </trkpt>
      <trkpt lat="47.57145" lon="7.22723">
        <ele>388.31</ele>
        <time>2016-02-27T11:18:12Z</time>
      </trkpt>
      <trkpt lat="47.57131" lon="7.22704">
        <ele>388.74</ele>
        <time>2016-02-27T11:18:23Z</time>
      </trkpt>
      <trkpt lat="47.57116" lon="7.22689">
        <ele>390.39</ele>
        <time>2016-02-27T11:18:40Z</time>
      </trkpt>
      <trkpt lat="47.57103" lon="7.22668">
        <ele>392.96</ele>
        <time>2016-02-27T11:19:01Z</time>
      </trkpt>
      <trkpt lat="47.57088" lon="7.22651">
        <ele>392.23</ele>
        <time>2016-02-27T11:19:14Z</time>
      </trkpt>
      <trkpt lat="47.5707" lon="7.22634">
        <ele>391.27</ele>
        <time>2016-02-27T11:19:29Z</time>
      </trkpt>
      <trkpt lat="47.57053" lon="7.22617">
        <ele>390.64</ele>
        <time>2016-02-27T11:19:33Z</time>
      </trkpt>
      <trkpt lat="47.5704" lon="7.22596">
        <ele>389.63</ele>
        <time>2016-02-27T11:19:44Z</time>
      </trkpt>
      <trkpt lat="47.57026" lon="7.22578">
        <ele>386.57</ele>
        <time>2016-02-27T11:20:00Z</time>
      </trkpt>
      <trkpt lat="47.57007" lon="7.22561">
        <ele>385.88</ele>
        <time>2016-02-27T11:20:06Z</time>
      </trkpt>
      <trkpt lat="47.56992" lon="7.22544">
        <ele>386.22</ele>
        <time>2016-02-27T11:20:15Z</time>
      </trkpt>
      <trkpt lat="47.56974" lon="7.22538">
        <ele>390.17</ele>
        <time>2016-02-27T11:20:29Z</time>
      </trkpt>
      <trkpt lat="47.56958" lon="7.22522">
        <ele>392.87</ele>
        <time>2016-02-27T11:20:42Z</time>
      </trkpt>
      <trkpt lat="47.56939" lon="7.22516">
        <ele>393.04</ele>
        <time>2016-02-27T11:20:58Z</time>
      </trkpt>
      <trkpt lat="47.5692" lon="7.22515">
        <ele>391.55</ele>
        <time>2016-02-27T11:21:03Z</time>
      </trkpt>
      <trkpt lat="47.56902" lon="7.22521">
        <ele>389.6</ele>
        <time>2016-02-27T11:21:11Z</time>
      </trkpt>
      <trkpt lat="47.56882" lon="7.22524">
        <ele>388.31</ele>
        <time>2016-02-27T11:21:21Z</time>
      </trkpt>
      <trkpt lat="47.56861" lon="7.22529">
        <ele>387.45</ele>
        <time>2016-02-27T11:21:29Z</time>
      </trkpt>
      <trkpt lat="47.56843" lon="7.22536">
        <ele>386.75</ele>
        <time>2016-02-27T11:21:37Z</time>
      </trkpt>
      <trkpt lat="47.56826" lon="7.22544">
        <ele>386.02</ele>
        <time>2016-02-27T11:21:48Z</time>
      </trkpt>
      <trkpt lat="47.56807" lon="7.22552">
        <ele>386.11</ele>
        <time>2016-02-27T11:22:01Z</time>
      </trkpt>
      <trkpt lat="47.56789" lon="7.22555">
        <ele>385.91</ele>
        <time>2016-02-27T11:22:08Z</time>
      </trkpt>
      <trkpt lat="47.5677" lon="7.22562">
        <ele>384.91</ele>
        <time>2016-02-27T11:22:23Z</time>
      </trkpt>
      <trkpt lat="47.56755" lon="7.22579">
        <ele>380.05</ele>
        <time>2016-02-27T11:23:19Z</time>
      </trkpt>
      <trkpt lat="47.5674" lon="7.22594">
        <ele>380.36</ele>
        <time>2016-02-27T11:23:44Z</time>
      </trkpt>
      <trkpt lat="47.5674" lon="7.22626">
        <ele>379.73</ele>
        <time>2016-02-27T11:23:54Z</time>
      </trkpt>
      <trkpt lat="47.56734" lon="7.22652">
        <ele>379.72</ele>
        <time>2016-02-27T11:24:04Z</time>
      </trkpt>
      <trkpt lat="47.56725" lon="7.22677">
        <ele>379.73</ele>
        <time>2016-02-27T11:24:18Z</time>
      </trkpt>
      <trkpt lat="47.56728" lon="7.22704">
        <ele>380.37</ele>
        <time>2016-02-27T11:24:30Z</time>
      </trkpt>
      <trkpt lat="47.56742" lon="7.2272">
        <ele>382.45</ele>
        <time>2016-02-27T11:24:43Z</time>
      </trkpt>
      <trkpt lat="47.56757" lon="7.22737">
        <ele>385.83</ele>
        <time>2016-02-27T11:25:04Z</time>
      </trkpt>
      <trkpt lat="47.56774" lon="7.22752">
        <ele>387.83</ele>
        <time>2016-02-27T11:25:15Z</time>
      </trkpt>
      <trkpt lat="47.56784" lon="7.22774">
        <ele>387.03</ele>
        <time>2016-02-27T11:25:28Z</time>
      </trkpt>
      <trkpt lat="47.56794" lon="7.22798">
        <ele>387.03</ele>
        <time>2016-02-27T11:25:38Z</time>
      </trkpt>
      <trkpt lat="47.56804" lon="7.22821">
        <ele>388.8</ele>
        <time>2016-02-27T11:25:49Z</time>
      </trkpt>
      <trkpt lat="47.56812" lon="7.22845">
        <ele>390.13</ele>
        <time>2016-02-27T11:26:02Z</time>
      </trkpt>
      <trkpt lat="47.56824" lon="7.22867">
        <ele>391.5</ele>
        <time>2016-02-27T11:26:15Z</time>
      </trkpt>
      <trkpt lat="47.56833" lon="7.2289">
        <ele>393.14</ele>
        <time>2016-02-27T11:26:26Z</time>
      </trkpt>
      <trkpt lat="47.56843" lon="7.22914">
        <ele>393.77</ele>
        <time>2016-02-27T11:26:38Z</time>
      </trkpt>
      <trkpt lat="47.56852" lon="7.22939">
        <ele>394.34</ele>
        <time>2016-02-27T11:26:49Z</time>
      </trkpt>
      <trkpt lat="47.56859" lon="7.22963">
        <ele>395.42</ele>
        <time>2016-02-27T11:27:00Z</time>
      </trkpt>
      <trkpt lat="47.56867" lon="7.22988">
        <ele>395.88</ele>
        <time>2016-02-27T11:27:10Z</time>
      </trkpt>
      <trkpt lat="47.56873" lon="7.23014">
        <ele>396.95</ele>
        <time>2016-02-27T11:27:23Z</time>
      </trkpt>
      <trkpt lat="47.56881" lon="7.23039">
        <ele>397.8</ele>
        <time>2016-02-27T11:27:34Z</time>
      </trkpt>
      <trkpt lat="47.56887" lon="7.23065">
        <ele>398.54</ele>
        <time>2016-02-27T11:27:46Z</time>
      </trkpt>
      <trkpt lat="47.56894" lon="7.23092">
        <ele>398.67</ele>
        <time>2016-02-27T11:27:56Z</time>
      </trkpt>
      <trkpt lat="47.56901" lon="7.23118">
        <ele>398.56</ele>
        <time>2016-02-27T11:28:07Z</time>
      </trkpt>
      <trkpt lat="47.56909" lon="7.23143">
        <ele>399.36</ele>
        <time>2016-02-27T11:28:19Z</time>
      </trkpt>
      <trkpt lat="47.56917" lon="7.23169">
        <ele>399.83</ele>
        <time>2016-02-27T11:28:29Z</time>
      </trkpt>
      <trkpt lat="47.56926" lon="7.23193">
        <ele>399.25</ele>
        <time>2016-02-27T11:28:40Z</time>
      </trkpt>
      <trkpt lat="47.56937" lon="7.23216">
        <ele>398.25</ele>
        <time>2016-02-27T11:28:53Z</time>
      </trkpt>
      <trkpt lat="47.56945" lon="7.23242">
        <ele>397.76</ele>
        <time>2016-02-27T11:29:02Z</time>
      </trkpt>
      <trkpt lat="47.56954" lon="7.23267">
        <ele>397.19</ele>
        <time>2016-02-27T11:29:15Z</time>
      </trkpt>
      <trkpt lat="47.56964" lon="7.23291">
        <ele>397.88</ele>
        <time>2016-02-27T11:29:26Z</time>
      </trkpt>
      <trkpt lat="47.56973" lon="7.23316">
        <ele>397.45</ele>
        <time>2016-02-27T11:29:36Z</time>
      </trkpt>
      <trkpt lat="47.5698" lon="7.23341">
        <ele>396.73</ele>
        <time>2016-02-27T11:29:47Z</time>
      </trkpt>
      <trkpt lat="47.56987" lon="7.23368">
        <ele>395.88</ele>
        <time>2016-02-27T11:29:58Z</time>
      </trkpt>
      <trkpt lat="47.56993" lon="7.23394">
        <ele>395.11</ele>
        <time>2016-02-27T11:30:09Z</time>
      </trkpt>
      <trkpt lat="47.57001" lon="7.2342">
        <ele>395</ele>
        <time>2016-02-27T11:30:20Z</time>
      </trkpt>
      <trkpt lat="47.56997" lon="7.23448">
        <ele>394.3</ele>
        <time>2016-02-27T11:30:31Z</time>
      </trkpt>
      <trkpt lat="47.56984" lon="7.23468">
        <ele>393.11</ele>
        <time>2016-02-27T11:30:43Z</time>
      </trkpt>
      <trkpt lat="47.56969" lon="7.23485">
        <ele>391.35</ele>
        <time>2016-02-27T11:30:54Z</time>
      </trkpt>
      <trkpt lat="47.56957" lon="7.23506">
        <ele>389.32</ele>
        <time>2016-02-27T11:31:05Z</time>
      </trkpt>
      <trkpt lat="47.5695" lon="7.23532">
        <ele>388.06</ele>
        <time>2016-02-27T11:31:15Z</time>
      </trkpt>
      <trkpt lat="47.56949" lon="7.23559">
        <ele>386.23</ele>
        <time>2016-02-27T11:31:27Z</time>
      </trkpt>
      <trkpt lat="47.56949" lon="7.23588">
        <ele>384.71</ele>
        <time>2016-02-27T11:31:38Z</time>
      </trkpt>
      <trkpt lat="47.56952" lon="7.23615">
        <ele>383.87</ele>
        <time>2016-02-27T11:31:48Z</time>
      </trkpt>
      <trkpt lat="47.56953" lon="7.23642">
        <ele>381.15</ele>
        <time>2016-02-27T11:32:02Z</time>
      </trkpt>
      <trkpt lat="47.56953" lon="7.23669">
        <ele>379.48</ele>
        <time>2016-02-27T11:32:13Z</time>
      </trkpt>
      <trkpt lat="47.56954" lon="7.23697">
        <ele>377.32</ele>
        <time>2016-02-27T11:32:27Z</time>
      </trkpt>
      <trkpt lat="47.56957" lon="7.23726">
        <ele>375.42</ele>
        <time>2016-02-27T11:32:39Z</time>
      </trkpt>
      <trkpt lat="47.5696" lon="7.23754">
        <ele>374.27</ele>
        <time>2016-02-27T11:32:48Z</time>
      </trkpt>
      <trkpt lat="47.5696" lon="7.23783">
        <ele>374.13</ele>
        <time>2016-02-27T11:32:57Z</time>
      </trkpt>
      <trkpt lat="47.56964" lon="7.23811">
        <ele>374.63</ele>
        <time>2016-02-27T11:33:07Z</time>
      </trkpt>
      <trkpt lat="47.56967" lon="7.23838">
        <ele>374.45</ele>
        <time>2016-02-27T11:33:17Z</time>
      </trkpt>
      <trkpt lat="47.56971" lon="7.23866">
        <ele>373.26</ele>
        <time>2016-02-27T11:33:29Z</time>
      </trkpt>
      <trkpt lat="47.56981" lon="7.23888">
        <ele>371.99</ele>
        <time>2016-02-27T11:33:41Z</time>
      </trkpt>
      <trkpt lat="47.56996" lon="7.23903">
        <ele>370.37</ele>
        <time>2016-02-27T11:33:56Z</time>
      </trkpt>
      <trkpt lat="47.57013" lon="7.23916">
        <ele>369.98</ele>
        <time>2016-02-27T11:34:05Z</time>
      </trkpt>
      <trkpt lat="47.57029" lon="7.23934">
        <ele>368.72</ele>
        <time>2016-02-27T11:34:16Z</time>
      </trkpt>
      <trkpt lat="47.57041" lon="7.23955">
        <ele>368.63</ele>
        <time>2016-02-27T11:34:28Z</time>
      </trkpt>
      <trkpt lat="47.5705" lon="7.23979">
        <ele>367.84</ele>
        <time>2016-02-27T11:34:37Z</time>
      </trkpt>
      <trkpt lat="47.57057" lon="7.24004">
        <ele>367.22</ele>
        <time>2016-02-27T11:34:46Z</time>
      </trkpt>
      <trkpt lat="47.57059" lon="7.24031">
        <ele>366.41</ele>
        <time>2016-02-27T11:34:57Z</time>
      </trkpt>
      <trkpt lat="47.57064" lon="7.24059">
        <ele>364.75</ele>
        <time>2016-02-27T11:35:08Z</time>
      </trkpt>
      <trkpt lat="47.57066" lon="7.24086">
        <ele>362.81</ele>
        <time>2016-02-27T11:35:18Z</time>
      </trkpt>
      <trkpt lat="47.57065" lon="7.24114">
        <ele>361.78</ele>
        <time>2016-02-27T11:35:27Z</time>
      </trkpt>
      <trkpt lat="47.57071" lon="7.2414">
        <ele>360.88</ele>
        <time>2016-02-27T11:35:41Z</time>
      </trkpt>
      <trkpt lat="47.57057" lon="7.24159">
        <ele>358.14</ele>
        <time>2016-02-27T11:36:04Z</time>
      </trkpt>
      <trkpt lat="47.57041" lon="7.24175">
        <ele>354.7</ele>
        <time>2016-02-27T11:36:16Z</time>
      </trkpt>
      <trkpt lat="47.57025" lon="7.2419">
        <ele>351.03</ele>
        <time>2016-02-27T11:36:26Z</time>
      </trkpt>
      <trkpt lat="47.57007" lon="7.24202">
        <ele>348.45</ele>
        <time>2016-02-27T11:36:36Z</time>
      </trkpt>
      <trkpt lat="47.56992" lon="7.2422">
        <ele>346.73</ele>
        <time>2016-02-27T11:36:47Z</time>
      </trkpt>
      <trkpt lat="47.56975" lon="7.24232">
        <ele>345.71</ele>
        <time>2016-02-27T11:36:58Z</time>
      </trkpt>
      <trkpt lat="47.5696" lon="7.24249">
        <ele>345.44</ele>
        <time>2016-02-27T11:37:09Z</time>
      </trkpt>
      <trkpt lat="47.56944" lon="7.24263">
        <ele>345.82</ele>
        <time>2016-02-27T11:37:20Z</time>
      </trkpt>
      <trkpt lat="47.56926" lon="7.24276">
        <ele>346.84</ele>
        <time>2016-02-27T11:37:30Z</time>
      </trkpt>
      <trkpt lat="47.56911" lon="7.24293">
        <ele>347.61</ele>
        <time>2016-02-27T11:37:42Z</time>
      </trkpt>
      <trkpt lat="47.56895" lon="7.24308">
        <ele>347.61</ele>
        <time>2016-02-27T11:37:53Z</time>
      </trkpt>
      <trkpt lat="47.56878" lon="7.24319">
        <ele>347.62</ele>
        <time>2016-02-27T11:38:04Z</time>
      </trkpt>
      <trkpt lat="47.5686" lon="7.24324">
        <ele>348.69</ele>
        <time>2016-02-27T11:38:14Z</time>
      </trkpt>
      <trkpt lat="47.56842" lon="7.24334">
        <ele>349.97</ele>
        <time>2016-02-27T11:38:26Z</time>
      </trkpt>
      <trkpt lat="47.5683" lon="7.24356">
        <ele>350</ele>
        <time>2016-02-27T11:38:38Z</time>
      </trkpt>
      <trkpt lat="47.56826" lon="7.24384">
        <ele>350.2</ele>
        <time>2016-02-27T11:38:51Z</time>
      </trkpt>
      <trkpt lat="47.56827" lon="7.24413">
        <ele>351.21</ele>
        <time>2016-02-27T11:39:04Z</time>
      </trkpt>
      <trkpt lat="47.5683" lon="7.24441">
        <ele>354.07</ele>
        <time>2016-02-27T11:39:17Z</time>
      </trkpt>
      <trkpt lat="47.56847" lon="7.24454">
        <ele>357.73</ele>
        <time>2016-02-27T11:39:32Z</time>
      </trkpt>
      <trkpt lat="47.56864" lon="7.24464">
        <ele>357.09</ele>
        <time>2016-02-27T11:39:43Z</time>
      </trkpt>
      <trkpt lat="47.56882" lon="7.24471">
        <ele>357.22</ele>
        <time>2016-02-27T11:39:55Z</time>
      </trkpt>
      <trkpt lat="47.56901" lon="7.24478">
        <ele>356.13</ele>
        <time>2016-02-27T11:40:08Z</time>
      </trkpt>
      <trkpt lat="47.56918" lon="7.2449">
        <ele>355.67</ele>
        <time>2016-02-27T11:40:21Z</time>
      </trkpt>
      <trkpt lat="47.56935" lon="7.24504">
        <ele>352.99</ele>
        <time>2016-02-27T11:40:34Z</time>
      </trkpt>
      <trkpt lat="47.5695" lon="7.2452">
        <ele>350.52</ele>
        <time>2016-02-27T11:40:44Z</time>
      </trkpt>
      <trkpt lat="47.56965" lon="7.24538">
        <ele>348.08</ele>
        <time>2016-02-27T11:40:54Z</time>
      </trkpt>
      <trkpt lat="47.5698" lon="7.24553">
        <ele>344.45</ele>
        <time>2016-02-27T11:41:06Z</time>
      </trkpt>
      <trkpt lat="47.56998" lon="7.24566">
        <ele>341.83</ele>
        <time>2016-02-27T11:41:18Z</time>
      </trkpt>
      <trkpt lat="47.57014" lon="7.24576">
        <ele>339.81</ele>
        <time>2016-02-27T11:41:29Z</time>
      </trkpt>
      <trkpt lat="47.5703" lon="7.24591">
        <ele>339.22</ele>
        <time>2016-02-27T11:41:38Z</time>
      </trkpt>
      <trkpt lat="47.57046" lon="7.24605">
        <ele>338.74</ele>
        <time>2016-02-27T11:41:49Z</time>
      </trkpt>
      <trkpt lat="47.57063" lon="7.24619">
        <ele>338.29</ele>
        <time>2016-02-27T11:42:02Z</time>
      </trkpt>
      <trkpt lat="47.57079" lon="7.24636">
        <ele>337.76</ele>
        <time>2016-02-27T11:42:13Z</time>
      </trkpt>
      <trkpt lat="47.57094" lon="7.24654">
        <ele>337.56</ele>
        <time>2016-02-27T11:42:23Z</time>
      </trkpt>
      <trkpt lat="47.57111" lon="7.24668">
        <ele>336.88</ele>
        <time>2016-02-27T11:42:35Z</time>
      </trkpt>
      <trkpt lat="47.57126" lon="7.24685">
        <ele>335.79</ele>
        <time>2016-02-27T11:42:47Z</time>
      </trkpt>
      <trkpt lat="47.5714" lon="7.24706">
        <ele>334.92</ele>
        <time>2016-02-27T11:42:57Z</time>
      </trkpt>
      <trkpt lat="47.57156" lon="7.24721">
        <ele>334.41</ele>
        <time>2016-02-27T11:43:07Z</time>
      </trkpt>
      <trkpt lat="47.5717" lon="7.2474">
        <ele>333.86</ele>
        <time>2016-02-27T11:43:16Z</time>
      </trkpt>
      <trkpt lat="47.57185" lon="7.24761">
        <ele>335.35</ele>
        <time>2016-02-27T11:43:27Z</time>
      </trkpt>
      <trkpt lat="47.57202" lon="7.24772">
        <ele>339.97</ele>
        <time>2016-02-27T11:43:36Z</time>
      </trkpt>
      <trkpt lat="47.5722" lon="7.24783">
        <ele>347.44</ele>
        <time>2016-02-27T11:43:47Z</time>
      </trkpt>
      <trkpt lat="47.57237" lon="7.24796">
        <ele>353.33</ele>
        <time>2016-02-27T11:43:58Z</time>
      </trkpt>
      <trkpt lat="47.57255" lon="7.24804">
        <ele>357.45</ele>
        <time>2016-02-27T11:44:09Z</time>
      </trkpt>
      <trkpt lat="47.5727" lon="7.24821">
        <ele>359.45</ele>
        <time>2016-02-27T11:44:20Z</time>
      </trkpt>
      <trkpt lat="47.57286" lon="7.24834">
        <ele>359.08</ele>
        <time>2016-02-27T11:44:29Z</time>
      </trkpt>
      <trkpt lat="47.57303" lon="7.24844">
        <ele>357.87</ele>
        <time>2016-02-27T11:44:37Z</time>
      </trkpt>
      <trkpt lat="47.57321" lon="7.24852">
        <ele>355.49</ele>
        <time>2016-02-27T11:44:48Z</time>
      </trkpt>
      <trkpt lat="47.5734" lon="7.24859">
        <ele>354.32</ele>
        <time>2016-02-27T11:44:59Z</time>
      </trkpt>
      <trkpt lat="47.57359" lon="7.24871">
        <ele>352.36</ele>
        <time>2016-02-27T11:45:11Z</time>
      </trkpt>
      <trkpt lat="47.57374" lon="7.24885">
        <ele>351.03</ele>
        <time>2016-02-27T11:45:21Z</time>
      </trkpt>
      <trkpt lat="47.57392" lon="7.24893">
        <ele>350.97</ele>
        <time>2016-02-27T11:45:33Z</time>
      </trkpt>
      <trkpt lat="47.57411" lon="7.24885">
        <ele>351.78</ele>
        <time>2016-02-27T11:45:48Z</time>
      </trkpt>
      <trkpt lat="47.57429" lon="7.24888">
        <ele>351.75</ele>
        <time>2016-02-27T11:45:58Z</time>
      </trkpt>
      <trkpt lat="47.57448" lon="7.24893">
        <ele>349.98</ele>
        <time>2016-02-27T11:46:12Z</time>
      </trkpt>
      <trkpt lat="47.57466" lon="7.24901">
        <ele>350.54</ele>
        <time>2016-02-27T11:46:27Z</time>
      </trkpt>
      <trkpt lat="47.57482" lon="7.24916">
        <ele>352.46</ele>
        <time>2016-02-27T11:46:39Z</time>
      </trkpt>
      <trkpt lat="47.57503" lon="7.24924">
        <ele>351.32</ele>
        <time>2016-02-27T11:46:48Z</time>
      </trkpt>
      <trkpt lat="47.57521" lon="7.24932">
        <ele>349.3</ele>
        <time>2016-02-27T11:46:58Z</time>
      </trkpt>
      <trkpt lat="47.57538" lon="7.24939">
        <ele>348.94</ele>
        <time>2016-02-27T11:47:10Z</time>
      </trkpt>
      <trkpt lat="47.57555" lon="7.24954">
        <ele>349.13</ele>
        <time>2016-02-27T11:47:19Z</time>
      </trkpt>
      <trkpt lat="47.57571" lon="7.24968">
        <ele>348.14</ele>
        <time>2016-02-27T11:47:30Z</time>
      </trkpt>
      <trkpt lat="47.57586" lon="7.24984">
        <ele>347.72</ele>
        <time>2016-02-27T11:47:40Z</time>
      </trkpt>
      <trkpt lat="47.57601" lon="7.25003">
        <ele>348.37</ele>
        <time>2016-02-27T11:47:49Z</time>
      </trkpt>
      <trkpt lat="47.57616" lon="7.25019">
        <ele>347.73</ele>
        <time>2016-02-27T11:48:01Z</time>
      </trkpt>
      <trkpt lat="47.57629" lon="7.25037">
        <ele>347.5</ele>
        <time>2016-02-27T11:48:09Z</time>
      </trkpt>
      <trkpt lat="47.57646" lon="7.25048">
        <ele>347.78</ele>
        <time>2016-02-27T11:48:18Z</time>
      </trkpt>
      <trkpt lat="47.57659" lon="7.25068">
        <ele>350.05</ele>
        <time>2016-02-27T11:48:30Z</time>
      </trkpt>
      <trkpt lat="47.57675" lon="7.25081">
        <ele>354.51</ele>
        <time>2016-02-27T11:48:47Z</time>
      </trkpt>
      <trkpt lat="47.57693" lon="7.25096">
        <ele>356.69</ele>
        <time>2016-02-27T11:49:02Z</time>
      </trkpt>
      <trkpt lat="47.57709" lon="7.25109">
        <ele>359.35</ele>
        <time>2016-02-27T11:49:15Z</time>
      </trkpt>
      <trkpt lat="47.57725" lon="7.25118">
        <ele>360.7</ele>
        <time>2016-02-27T11:49:26Z</time>
      </trkpt>
      <trkpt lat="47.57746" lon="7.25122">
        <ele>362.03</ele>
        <time>2016-02-27T11:49:36Z</time>
      </trkpt>
      <trkpt lat="47.57765" lon="7.25121">
        <ele>362.31</ele>
        <time>2016-02-27T11:49:45Z</time>
      </trkpt>
      <trkpt lat="47.57783" lon="7.25114">
        <ele>361.9</ele>
        <time>2016-02-27T11:49:52Z</time>
      </trkpt>
      <trkpt lat="47.57801" lon="7.25106">
        <ele>361.05</ele>
        <time>2016-02-27T11:50:05Z</time>
      </trkpt>
      <trkpt lat="47.57819" lon="7.25096">
        <ele>357.53</ele>
        <time>2016-02-27T11:50:18Z</time>
      </trkpt>
      <trkpt lat="47.57836" lon="7.25084">
        <ele>354.79</ele>
        <time>2016-02-27T11:50:28Z</time>
      </trkpt>
      <trkpt lat="47.57855" lon="7.25079">
        <ele>353.57</ele>
        <time>2016-02-27T11:50:36Z</time>
      </trkpt>
      <trkpt lat="47.57873" lon="7.25074">
        <ele>351.59</ele>
        <time>2016-02-27T11:50:47Z</time>
      </trkpt>
      <trkpt lat="47.57892" lon="7.25068">
        <ele>346.86</ele>
        <time>2016-02-27T11:51:04Z</time>
      </trkpt>
      <trkpt lat="47.5791" lon="7.25061">
        <ele>339.02</ele>
        <time>2016-02-27T11:51:20Z</time>
      </trkpt>
      <trkpt lat="47.57929" lon="7.25059">
        <ele>331.87</ele>
        <time>2016-02-27T11:51:34Z</time>
      </trkpt>
      <trkpt lat="47.57948" lon="7.25062">
        <ele>325.3</ele>
        <time>2016-02-27T11:51:52Z</time>
      </trkpt>
      <trkpt lat="47.57967" lon="7.25067">
        <ele>325.98</ele>
        <time>2016-02-27T11:51:57Z</time>
      </trkpt>
      <trkpt lat="47.57985" lon="7.25074">
        <ele>325.78</ele>
        <time>2016-02-27T11:52:05Z</time>
      </trkpt>
      <trkpt lat="47.58004" lon="7.25074">
        <ele>328.4</ele>
        <time>2016-02-27T11:52:15Z</time>
      </trkpt>
      <trkpt lat="47.58022" lon="7.2507">
        <ele>331.34</ele>
        <time>2016-02-27T11:52:23Z</time>
      </trkpt>
      <trkpt lat="47.58043" lon="7.25066">
        <ele>333.6</ele>
        <time>2016-02-27T11:52:30Z</time>
      </trkpt>
      <trkpt lat="47.58064" lon="7.25065">
        <ele>335.99</ele>
        <time>2016-02-27T11:52:38Z</time>
      </trkpt>
      <trkpt lat="47.58082" lon="7.25059">
        <ele>337.77</ele>
        <time>2016-02-27T11:52:48Z</time>
      </trkpt>
      <trkpt lat="47.581" lon="7.25064">
        <ele>338.75</ele>
        <time>2016-02-27T11:53:00Z</time>
      </trkpt>
      <trkpt lat="47.58119" lon="7.25063">
        <ele>336.22</ele>
        <time>2016-02-27T11:53:15Z</time>
      </trkpt>
      <trkpt lat="47.58137" lon="7.25061">
        <ele>331.94</ele>
        <time>2016-02-27T11:53:26Z</time>
      </trkpt>
      <trkpt lat="47.58156" lon="7.25061">
        <ele>329.84</ele>
        <time>2016-02-27T11:53:34Z</time>
      </trkpt>
      <trkpt lat="47.58175" lon="7.25066">
        <ele>330.31</ele>
        <time>2016-02-27T11:53:42Z</time>
      </trkpt>
      <trkpt lat="47.58194" lon="7.25076">
        <ele>331.37</ele>
        <time>2016-02-27T11:53:51Z</time>
      </trkpt>
      <trkpt lat="47.5821" lon="7.25088">
        <ele>332.36</ele>
        <time>2016-02-27T11:53:59Z</time>
      </trkpt>
      <trkpt lat="47.58229" lon="7.25099">
        <ele>333.53</ele>
        <time>2016-02-27T11:54:10Z</time>
      </trkpt>
      <trkpt lat="47.58246" lon="7.25109">
        <ele>333.28</ele>
        <time>2016-02-27T11:54:22Z</time>
      </trkpt>
      <trkpt lat="47.58264" lon="7.25124">
        <ele>332.91</ele>
        <time>2016-02-27T11:54:33Z</time>
      </trkpt>
      <trkpt lat="47.58281" lon="7.2514">
        <ele>333.05</ele>
        <time>2016-02-27T11:54:44Z</time>
      </trkpt>
      <trkpt lat="47.58297" lon="7.25152">
        <ele>332.8</ele>
        <time>2016-02-27T11:54:55Z</time>
      </trkpt>
      <trkpt lat="47.58315" lon="7.25163">
        <ele>331.83</ele>
        <time>2016-02-27T11:55:05Z</time>
      </trkpt>
      <trkpt lat="47.58334" lon="7.25166">
        <ele>331.61</ele>
        <time>2016-02-27T11:55:16Z</time>
      </trkpt>
      <trkpt lat="47.5835" lon="7.2515">
        <ele>330.23</ele>
        <time>2016-02-27T11:55:27Z</time>
      </trkpt>
      <trkpt lat="47.58364" lon="7.25134">
        <ele>329.25</ele>
        <time>2016-02-27T11:55:37Z</time>
      </trkpt>
      <trkpt lat="47.58377" lon="7.25112">
        <ele>328.65</ele>
        <time>2016-02-27T11:55:47Z</time>
      </trkpt>
      <trkpt lat="47.58392" lon="7.25094">
        <ele>327.89</ele>
        <time>2016-02-27T11:55:59Z</time>
      </trkpt>
      <trkpt lat="47.58405" lon="7.25074">
        <ele>325.46</ele>
        <time>2016-02-27T11:56:11Z</time>
      </trkpt>
      <trkpt lat="47.58423" lon="7.25071">
        <ele>323.51</ele>
        <time>2016-02-27T11:56:24Z</time>
      </trkpt>
      <trkpt lat="47.58442" lon="7.25075">
        <ele>321.25</ele>
        <time>2016-02-27T11:56:37Z</time>
      </trkpt>
      <trkpt lat="47.58458" lon="7.25062">
        <ele>319.83</ele>
        <time>2016-02-27T11:56:48Z</time>
      </trkpt>
      <trkpt lat="47.58473" lon="7.25046">
        <ele>319.09</ele>
        <time>2016-02-27T11:56:59Z</time>
      </trkpt>
      <trkpt lat="47.58491" lon="7.25033">
        <ele>319.4</ele>
        <time>2016-02-27T11:57:08Z</time>
      </trkpt>
      <trkpt lat="47.58507" lon="7.25018">
        <ele>319.6</ele>
        <time>2016-02-27T11:57:17Z</time>
      </trkpt>
      <trkpt lat="47.58523" lon="7.25003">
        <ele>318.4</ele>
        <time>2016-02-27T11:57:27Z</time>
      </trkpt>
      <trkpt lat="47.58541" lon="7.24999">
        <ele>317.31</ele>
        <time>2016-02-27T11:57:48Z</time>
      </trkpt>
      <trkpt lat="47.58558" lon="7.25009">
        <ele>315.94</ele>
        <time>2016-02-27T11:57:59Z</time>
      </trkpt>
      <trkpt lat="47.58575" lon="7.25025">
        <ele>316.3</ele>
        <time>2016-02-27T11:58:14Z</time>
      </trkpt>
      <trkpt lat="47.58594" lon="7.25039">
        <ele>316.82</ele>
        <time>2016-02-27T11:58:21Z</time>
      </trkpt>
      <trkpt lat="47.58611" lon="7.25053">
        <ele>317.29</ele>
        <time>2016-02-27T11:58:29Z</time>
      </trkpt>
      <trkpt lat="47.58629" lon="7.25064">
        <ele>318.47</ele>
        <time>2016-02-27T11:58:41Z</time>
      </trkpt>
      <trkpt lat="47.58648" lon="7.25057">
        <ele>314.92</ele>
        <time>2016-02-27T11:58:52Z</time>
      </trkpt>
      <trkpt lat="47.58664" lon="7.25045">
        <ele>309.46</ele>
        <time>2016-02-27T11:59:08Z</time>
      </trkpt>
      <trkpt lat="47.58682" lon="7.25035">
        <ele>309.05</ele>
        <time>2016-02-27T11:59:17Z</time>
      </trkpt>
      <trkpt lat="47.58697" lon="7.25018">
        <ele>309.28</ele>
        <time>2016-02-27T11:59:28Z</time>
      </trkpt>
      <trkpt lat="47.58713" lon="7.25001">
        <ele>310.79</ele>
        <time>2016-02-27T11:59:39Z</time>
      </trkpt>
      <trkpt lat="47.58731" lon="7.24996">
        <ele>312.05</ele>
        <time>2016-02-27T11:59:48Z</time>
      </trkpt>
      <trkpt lat="47.58747" lon="7.25012">
        <ele>310.71</ele>
        <time>2016-02-27T12:00:02Z</time>
      </trkpt>
      <trkpt lat="47.58761" lon="7.2503">
        <ele>310.71</ele>
        <time>2016-02-27T12:00:11Z</time>
      </trkpt>
      <trkpt lat="47.58776" lon="7.25049">
        <ele>312.14</ele>
        <time>2016-02-27T12:00:24Z</time>
      </trkpt>
      <trkpt lat="47.58789" lon="7.25071">
        <ele>314.24</ele>
        <time>2016-02-27T12:00:34Z</time>
      </trkpt>
      <trkpt lat="47.58803" lon="7.25087">
        <ele>315.8</ele>
        <time>2016-02-27T12:00:44Z</time>
      </trkpt>
      <trkpt lat="47.58816" lon="7.25106">
        <ele>317.55</ele>
        <time>2016-02-27T12:00:55Z</time>
      </trkpt>
      <trkpt lat="47.58828" lon="7.25129">
        <ele>317.66</ele>
        <time>2016-02-27T12:01:07Z</time>
      </trkpt>
      <trkpt lat="47.58841" lon="7.2515">
        <ele>317.55</ele>
        <time>2016-02-27T12:01:18Z</time>
      </trkpt>
      <trkpt lat="47.58852" lon="7.25176">
        <ele>317.28</ele>
        <time>2016-02-27T12:01:27Z</time>
      </trkpt>
      <trkpt lat="47.58859" lon="7.25201">
        <ele>317.35</ele>
        <time>2016-02-27T12:01:37Z</time>
      </trkpt>
      <trkpt lat="47.58867" lon="7.25225">
        <ele>318.76</ele>
        <time>2016-02-27T12:01:48Z</time>
      </trkpt>
      <trkpt lat="47.5888" lon="7.25247">
        <ele>320.42</ele>
        <time>2016-02-27T12:01:59Z</time>
      </trkpt>
      <trkpt lat="47.58886" lon="7.25274">
        <ele>320.74</ele>
        <time>2016-02-27T12:02:11Z</time>
      </trkpt>
      <trkpt lat="47.58906" lon="7.25273">
        <ele>322.91</ele>
        <time>2016-02-27T12:02:26Z</time>
      </trkpt>
      <trkpt lat="47.5892" lon="7.25254">
        <ele>322.05</ele>
        <time>2016-02-27T12:02:35Z</time>
      </trkpt>
      <trkpt lat="47.58937" lon="7.25245">
        <ele>321.16</ele>
        <time>2016-02-27T12:02:46Z</time>
      </trkpt>
      <trkpt lat="47.58954" lon="7.25238">
        <ele>319.69</ele>
        <time>2016-02-27T12:02:55Z</time>
      </trkpt>
      <trkpt lat="47.58972" lon="7.25229">
        <ele>318.51</ele>
        <time>2016-02-27T12:03:07Z</time>
      </trkpt>
      <trkpt lat="47.58991" lon="7.25222">
        <ele>318.04</ele>
        <time>2016-02-27T12:03:19Z</time>
      </trkpt>
      <trkpt lat="47.59009" lon="7.25214">
        <ele>316.83</ele>
        <time>2016-02-27T12:03:30Z</time>
      </trkpt>
      <trkpt lat="47.59025" lon="7.25198">
        <ele>313.33</ele>
        <time>2016-02-27T12:03:40Z</time>
      </trkpt>
      <trkpt lat="47.59041" lon="7.25183">
        <ele>309.72</ele>
        <time>2016-02-27T12:03:52Z</time>
      </trkpt>
      <trkpt lat="47.59054" lon="7.25163">
        <ele>309.4</ele>
        <time>2016-02-27T12:04:03Z</time>
      </trkpt>
      <trkpt lat="47.59068" lon="7.25142">
        <ele>309.55</ele>
        <time>2016-02-27T12:04:13Z</time>
      </trkpt>
      <trkpt lat="47.59081" lon="7.25122">
        <ele>309.36</ele>
        <time>2016-02-27T12:04:23Z</time>
      </trkpt>
      <trkpt lat="47.59091" lon="7.25098">
        <ele>310.95</ele>
        <time>2016-02-27T12:04:34Z</time>
      </trkpt>
      <trkpt lat="47.59099" lon="7.25073">
        <ele>312.89</ele>
        <time>2016-02-27T12:04:46Z</time>
      </trkpt>
      <trkpt lat="47.59103" lon="7.25047">
        <ele>314.06</ele>
        <time>2016-02-27T12:04:56Z</time>
      </trkpt>
      <trkpt lat="47.59111" lon="7.2502">
        <ele>314.18</ele>
        <time>2016-02-27T12:05:08Z</time>
      </trkpt>
      <trkpt lat="47.59121" lon="7.24997">
        <ele>313.75</ele>
        <time>2016-02-27T12:05:19Z</time>
      </trkpt>
      <trkpt lat="47.59131" lon="7.24975">
        <ele>314.24</ele>
        <time>2016-02-27T12:05:30Z</time>
      </trkpt>
      <trkpt lat="47.59138" lon="7.24949">
        <ele>315.63</ele>
        <time>2016-02-27T12:05:41Z</time>
      </trkpt>
      <trkpt lat="47.5915" lon="7.24928">
        <ele>316.94</ele>
        <time>2016-02-27T12:05:51Z</time>
      </trkpt>
    </trkseg>
  </trk>
</gpx>